sensor_id;sensor_type;location;lat;lon;timestamp;P1;durP1;ratioP1;P2;durP2;ratioP2
37203;SDS011;23098;48.054;10.636;2023-03-04T00:01:01;195.98;;;36.15;;
37203;SDS011;23098;48.054;10.636;2023-03-04T00:03:27;199.23;;;37.17;;
37203;SDS011;23098;48.054;10.636;2023-03-04T00:05:52;144.60;;;32.70;;
37203;SDS011;23098;48.054;10.636;2023-03-04T00:08:18;112.15;;;30.63;;
37203;SDS011;23098;48.054;10.636;2023-03-04T00:10:44;171.13;;;33.63;;
37203;SDS011;23098;48.054;10.636;2023-03-04T00:13:10;159.57;;;35.00;;
37203;SDS011;23098;48.054;10.636;2023-03-04T00:15:36;131.40;;;30.98;;
37203;SDS011;23098;48.054;10.636;2023-03-04T00:18:02;187.73;;;35.00;;
37203;SDS011;23098;48.054;10.636;2023-03-04T00:20:27;148.10;;;31.88;;
37203;SDS011;23098;48.054;10.636;2023-03-04T00:22:53;123.05;;;32.17;;
37203;SDS011;23098;48.054;10.636;2023-03-04T00:25:18;135.45;;;32.88;;
37203;SDS011;23098;48.054;10.636;2023-03-04T00:27:47;127.75;;;32.95;;
37203;SDS011;23098;48.054;10.636;2023-03-04T00:30:12;90.30;;;29.67;;
37203;SDS011;23098;48.054;10.636;2023-03-04T00:32:38;86.03;;;27.35;;
37203;SDS011;23098;48.054;10.636;2023-03-04T00:35:04;72.68;;;25.13;;
37203;SDS011;23098;48.054;10.636;2023-03-04T00:37:30;69.38;;;26.25;;
37203;SDS011;23098;48.054;10.636;2023-03-04T00:39:56;83.45;;;28.73;;
37203;SDS011;23098;48.054;10.636;2023-03-04T00:42:22;79.55;;;26.58;;
37203;SDS011;23098;48.054;10.636;2023-03-04T00:44:47;74.15;;;26.77;;
37203;SDS011;23098;48.054;10.636;2023-03-04T00:47:13;104.50;;;27.30;;
37203;SDS011;23098;48.054;10.636;2023-03-04T00:49:39;134.02;;;29.35;;
37203;SDS011;23098;48.054;10.636;2023-03-04T00:52:04;139.27;;;28.58;;
37203;SDS011;23098;48.054;10.636;2023-03-04T00:54:30;129.45;;;29.73;;
37203;SDS011;23098;48.054;10.636;2023-03-04T00:56:56;126.60;;;30.45;;
37203;SDS011;23098;48.054;10.636;2023-03-04T00:59:22;147.45;;;30.55;;
37203;SDS011;23098;48.054;10.636;2023-03-04T01:01:47;147.80;;;30.35;;
37203;SDS011;23098;48.054;10.636;2023-03-04T01:04:13;141.90;;;29.17;;
37203;SDS011;23098;48.054;10.636;2023-03-04T01:06:38;189.90;;;29.70;;
37203;SDS011;23098;48.054;10.636;2023-03-04T01:09:04;161.30;;;28.63;;
37203;SDS011;23098;48.054;10.636;2023-03-04T01:11:29;159.00;;;27.42;;
37203;SDS011;23098;48.054;10.636;2023-03-04T01:13:55;163.35;;;29.63;;
37203;SDS011;23098;48.054;10.636;2023-03-04T01:16:20;166.00;;;29.27;;
37203;SDS011;23098;48.054;10.636;2023-03-04T01:18:46;138.00;;;27.50;;
37203;SDS011;23098;48.054;10.636;2023-03-04T01:21:12;96.57;;;27.20;;
37203;SDS011;23098;48.054;10.636;2023-03-04T01:23:37;105.20;;;27.85;;
37203;SDS011;23098;48.054;10.636;2023-03-04T01:26:03;102.45;;;27.85;;
37203;SDS011;23098;48.054;10.636;2023-03-04T01:28:30;80.20;;;27.23;;
37203;SDS011;23098;48.054;10.636;2023-03-04T01:30:59;81.78;;;28.15;;
37203;SDS011;23098;48.054;10.636;2023-03-04T01:33:25;70.30;;;25.77;;
37203;SDS011;23098;48.054;10.636;2023-03-04T01:35:51;74.57;;;25.98;;
37203;SDS011;23098;48.054;10.636;2023-03-04T01:38:16;57.55;;;23.40;;
37203;SDS011;23098;48.054;10.636;2023-03-04T01:40:42;62.70;;;24.55;;
37203;SDS011;23098;48.054;10.636;2023-03-04T01:43:10;91.03;;;26.75;;
37203;SDS011;23098;48.054;10.636;2023-03-04T01:45:45;76.63;;;25.65;;
37203;SDS011;23098;48.054;10.636;2023-03-04T01:48:12;74.65;;;25.38;;
37203;SDS011;23098;48.054;10.636;2023-03-04T01:50:42;72.20;;;25.13;;
37203;SDS011;23098;48.054;10.636;2023-03-04T01:53:09;71.10;;;25.25;;
37203;SDS011;23098;48.054;10.636;2023-03-04T01:55:54;65.20;;;24.85;;
37203;SDS011;23098;48.054;10.636;2023-03-04T01:58:25;78.03;;;27.33;;
37203;SDS011;23098;48.054;10.636;2023-03-04T02:00:54;62.83;;;25.00;;
37203;SDS011;23098;48.054;10.636;2023-03-04T02:03:20;68.70;;;24.27;;
37203;SDS011;23098;48.054;10.636;2023-03-04T02:05:47;63.83;;;23.77;;
37203;SDS011;23098;48.054;10.636;2023-03-04T02:08:15;67.80;;;26.30;;
37203;SDS011;23098;48.054;10.636;2023-03-04T02:10:43;69.82;;;24.35;;
37203;SDS011;23098;48.054;10.636;2023-03-04T02:13:10;65.47;;;25.70;;
37203;SDS011;23098;48.054;10.636;2023-03-04T02:15:36;70.30;;;25.17;;
37203;SDS011;23098;48.054;10.636;2023-03-04T02:18:03;73.45;;;25.92;;
37203;SDS011;23098;48.054;10.636;2023-03-04T02:20:55;60.17;;;25.92;;
37203;SDS011;23098;48.054;10.636;2023-03-04T02:23:45;76.95;;;25.20;;
37203;SDS011;23098;48.054;10.636;2023-03-04T02:26:36;83.05;;;25.13;;
37203;SDS011;23098;48.054;10.636;2023-03-04T02:29:05;52.38;;;22.50;;
37203;SDS011;23098;48.054;10.636;2023-03-04T02:31:35;64.93;;;25.02;;
37203;SDS011;23098;48.054;10.636;2023-03-04T02:34:45;63.83;;;24.67;;
37203;SDS011;23098;48.054;10.636;2023-03-04T02:36:58;52.10;;;22.75;;
37203;SDS011;23098;48.054;10.636;2023-03-04T02:39:26;51.47;;;22.77;;
37203;SDS011;23098;48.054;10.636;2023-03-04T02:41:55;57.97;;;24.45;;
37203;SDS011;23098;48.054;10.636;2023-03-04T02:44:31;58.72;;;25.08;;
37203;SDS011;23098;48.054;10.636;2023-03-04T02:47:00;50.60;;;22.75;;
37203;SDS011;23098;48.054;10.636;2023-03-04T02:49:28;55.78;;;23.08;;
37203;SDS011;23098;48.054;10.636;2023-03-04T02:52:03;55.00;;;23.02;;
37203;SDS011;23098;48.054;10.636;2023-03-04T02:54:41;56.55;;;23.73;;
37203;SDS011;23098;48.054;10.636;2023-03-04T02:57:07;48.70;;;22.50;;
37203;SDS011;23098;48.054;10.636;2023-03-04T02:59:35;48.30;;;21.40;;
37203;SDS011;23098;48.054;10.636;2023-03-04T03:02:01;50.17;;;22.58;;
37203;SDS011;23098;48.054;10.636;2023-03-04T03:04:26;51.92;;;22.38;;
37203;SDS011;23098;48.054;10.636;2023-03-04T03:06:52;50.83;;;21.90;;
37203;SDS011;23098;48.054;10.636;2023-03-04T03:09:18;50.67;;;22.30;;
37203;SDS011;23098;48.054;10.636;2023-03-04T03:11:44;49.65;;;20.90;;
37203;SDS011;23098;48.054;10.636;2023-03-04T03:14:10;47.20;;;21.45;;
37203;SDS011;23098;48.054;10.636;2023-03-04T03:16:35;58.30;;;23.23;;
37203;SDS011;23098;48.054;10.636;2023-03-04T03:19:01;53.97;;;23.23;;
37203;SDS011;23098;48.054;10.636;2023-03-04T03:21:26;53.75;;;24.45;;
37203;SDS011;23098;48.054;10.636;2023-03-04T03:23:52;50.38;;;22.30;;
37203;SDS011;23098;48.054;10.636;2023-03-04T03:26:17;50.85;;;23.38;;
37203;SDS011;23098;48.054;10.636;2023-03-04T03:28:43;51.17;;;21.92;;
37203;SDS011;23098;48.054;10.636;2023-03-04T03:31:09;49.10;;;21.48;;
37203;SDS011;23098;48.054;10.636;2023-03-04T03:33:35;53.88;;;23.05;;
37203;SDS011;23098;48.054;10.636;2023-03-04T03:36:00;46.45;;;21.27;;
37203;SDS011;23098;48.054;10.636;2023-03-04T03:38:26;56.65;;;24.80;;
37203;SDS011;23098;48.054;10.636;2023-03-04T03:40:52;48.90;;;22.00;;
37203;SDS011;23098;48.054;10.636;2023-03-04T03:43:17;54.22;;;23.00;;
37203;SDS011;23098;48.054;10.636;2023-03-04T03:45:43;61.47;;;25.65;;
37203;SDS011;23098;48.054;10.636;2023-03-04T03:48:09;51.50;;;21.95;;
37203;SDS011;23098;48.054;10.636;2023-03-04T03:50:34;50.40;;;22.38;;
37203;SDS011;23098;48.054;10.636;2023-03-04T03:53:00;53.03;;;23.00;;
37203;SDS011;23098;48.054;10.636;2023-03-04T03:55:26;52.50;;;23.23;;
37203;SDS011;23098;48.054;10.636;2023-03-04T03:57:51;50.83;;;22.52;;
37203;SDS011;23098;48.054;10.636;2023-03-04T04:00:17;52.22;;;23.42;;
37203;SDS011;23098;48.054;10.636;2023-03-04T04:02:43;51.13;;;20.85;;
37203;SDS011;23098;48.054;10.636;2023-03-04T04:05:08;50.20;;;21.33;;
37203;SDS011;23098;48.054;10.636;2023-03-04T04:07:35;47.95;;;21.25;;
37203;SDS011;23098;48.054;10.636;2023-03-04T04:10:02;51.08;;;23.98;;
37203;SDS011;23098;48.054;10.636;2023-03-04T04:12:28;56.75;;;22.67;;
37203;SDS011;23098;48.054;10.636;2023-03-04T04:14:54;54.85;;;22.30;;
37203;SDS011;23098;48.054;10.636;2023-03-04T04:17:19;54.75;;;22.40;;
37203;SDS011;23098;48.054;10.636;2023-03-04T04:19:45;54.33;;;20.92;;
37203;SDS011;23098;48.054;10.636;2023-03-04T04:22:12;57.33;;;22.50;;
37203;SDS011;23098;48.054;10.636;2023-03-04T04:24:40;57.85;;;23.50;;
37203;SDS011;23098;48.054;10.636;2023-03-04T04:27:05;57.50;;;23.00;;
37203;SDS011;23098;48.054;10.636;2023-03-04T04:29:31;54.63;;;22.33;;
37203;SDS011;23098;48.054;10.636;2023-03-04T04:31:56;55.22;;;24.35;;
37203;SDS011;23098;48.054;10.636;2023-03-04T04:34:22;66.15;;;25.48;;
37203;SDS011;23098;48.054;10.636;2023-03-04T04:36:48;63.45;;;24.83;;
37203;SDS011;23098;48.054;10.636;2023-03-04T04:39:14;57.97;;;25.60;;
37203;SDS011;23098;48.054;10.636;2023-03-04T04:41:41;60.60;;;25.38;;
37203;SDS011;23098;48.054;10.636;2023-03-04T04:44:07;57.30;;;24.55;;
37203;SDS011;23098;48.054;10.636;2023-03-04T04:46:33;56.53;;;24.00;;
37203;SDS011;23098;48.054;10.636;2023-03-04T04:48:59;60.97;;;24.50;;
37203;SDS011;23098;48.054;10.636;2023-03-04T04:51:25;50.00;;;22.05;;
37203;SDS011;23098;48.054;10.636;2023-03-04T04:53:51;55.60;;;23.90;;
37203;SDS011;23098;48.054;10.636;2023-03-04T04:56:18;54.70;;;23.88;;
37203;SDS011;23098;48.054;10.636;2023-03-04T04:58:45;52.17;;;22.63;;
37203;SDS011;23098;48.054;10.636;2023-03-04T05:01:11;55.08;;;23.05;;
37203;SDS011;23098;48.054;10.636;2023-03-04T05:03:37;57.83;;;23.38;;
37203;SDS011;23098;48.054;10.636;2023-03-04T05:06:04;55.50;;;23.48;;
37203;SDS011;23098;48.054;10.636;2023-03-04T05:08:31;55.58;;;24.25;;
37203;SDS011;23098;48.054;10.636;2023-03-04T05:10:56;55.05;;;24.77;;
37203;SDS011;23098;48.054;10.636;2023-03-04T05:13:22;58.13;;;23.70;;
37203;SDS011;23098;48.054;10.636;2023-03-04T05:15:50;54.03;;;23.50;;
37203;SDS011;23098;48.054;10.636;2023-03-04T05:18:18;62.45;;;25.05;;
37203;SDS011;23098;48.054;10.636;2023-03-04T05:20:44;63.80;;;24.90;;
37203;SDS011;23098;48.054;10.636;2023-03-04T05:23:14;58.72;;;25.60;;
37203;SDS011;23098;48.054;10.636;2023-03-04T05:25:39;55.08;;;23.33;;
37203;SDS011;23098;48.054;10.636;2023-03-04T05:28:05;58.10;;;25.58;;
37203;SDS011;23098;48.054;10.636;2023-03-04T05:30:36;58.95;;;25.23;;
37203;SDS011;23098;48.054;10.636;2023-03-04T05:33:02;52.05;;;24.08;;
37203;SDS011;23098;48.054;10.636;2023-03-04T05:35:27;54.63;;;24.60;;
37203;SDS011;23098;48.054;10.636;2023-03-04T05:37:53;53.63;;;22.60;;
37203;SDS011;23098;48.054;10.636;2023-03-04T05:40:19;51.95;;;24.25;;
37203;SDS011;23098;48.054;10.636;2023-03-04T05:42:44;56.10;;;22.80;;
37203;SDS011;23098;48.054;10.636;2023-03-04T05:45:10;49.58;;;21.85;;
37203;SDS011;23098;48.054;10.636;2023-03-04T05:47:35;57.58;;;22.73;;
37203;SDS011;23098;48.054;10.636;2023-03-04T05:50:01;55.40;;;23.67;;
37203;SDS011;23098;48.054;10.636;2023-03-04T05:52:27;54.58;;;23.92;;
37203;SDS011;23098;48.054;10.636;2023-03-04T05:54:52;53.13;;;23.67;;
37203;SDS011;23098;48.054;10.636;2023-03-04T05:57:18;59.58;;;26.42;;
37203;SDS011;23098;48.054;10.636;2023-03-04T05:59:43;53.50;;;23.98;;
37203;SDS011;23098;48.054;10.636;2023-03-04T06:02:09;58.30;;;24.25;;
37203;SDS011;23098;48.054;10.636;2023-03-04T06:04:34;62.05;;;27.17;;
37203;SDS011;23098;48.054;10.636;2023-03-04T06:06:59;56.38;;;25.63;;
37203;SDS011;23098;48.054;10.636;2023-03-04T06:09:25;57.55;;;24.83;;
37203;SDS011;23098;48.054;10.636;2023-03-04T06:11:50;54.47;;;23.77;;
37203;SDS011;23098;48.054;10.636;2023-03-04T06:14:16;58.35;;;25.80;;
37203;SDS011;23098;48.054;10.636;2023-03-04T06:16:42;58.53;;;24.85;;
37203;SDS011;23098;48.054;10.636;2023-03-04T06:19:07;53.83;;;23.90;;
37203;SDS011;23098;48.054;10.636;2023-03-04T06:21:33;59.47;;;25.60;;
37203;SDS011;23098;48.054;10.636;2023-03-04T06:23:58;56.67;;;25.02;;
37203;SDS011;23098;48.054;10.636;2023-03-04T06:26:24;50.13;;;23.35;;
37203;SDS011;23098;48.054;10.636;2023-03-04T06:28:49;50.47;;;21.95;;
37203;SDS011;23098;48.054;10.636;2023-03-04T06:31:15;50.80;;;24.15;;
37203;SDS011;23098;48.054;10.636;2023-03-04T06:33:41;48.90;;;21.88;;
37203;SDS011;23098;48.054;10.636;2023-03-04T06:36:07;50.67;;;21.88;;
37203;SDS011;23098;48.054;10.636;2023-03-04T06:38:33;48.35;;;21.42;;
37203;SDS011;23098;48.054;10.636;2023-03-04T06:41:06;54.58;;;21.58;;
37203;SDS011;23098;48.054;10.636;2023-03-04T06:43:34;49.47;;;21.67;;
37203;SDS011;23098;48.054;10.636;2023-03-04T06:46:00;47.50;;;20.98;;
37203;SDS011;23098;48.054;10.636;2023-03-04T06:48:26;49.38;;;21.45;;
37203;SDS011;23098;48.054;10.636;2023-03-04T06:50:52;46.45;;;21.85;;
37203;SDS011;23098;48.054;10.636;2023-03-04T06:53:17;46.15;;;20.65;;
37203;SDS011;23098;48.054;10.636;2023-03-04T06:55:43;45.80;;;21.13;;
37203;SDS011;23098;48.054;10.636;2023-03-04T06:58:08;46.80;;;21.05;;
37203;SDS011;23098;48.054;10.636;2023-03-04T07:00:34;46.80;;;21.13;;
37203;SDS011;23098;48.054;10.636;2023-03-04T07:02:59;42.78;;;20.05;;
37203;SDS011;23098;48.054;10.636;2023-03-04T07:05:25;44.08;;;20.73;;
37203;SDS011;23098;48.054;10.636;2023-03-04T07:07:51;47.17;;;21.45;;
37203;SDS011;23098;48.054;10.636;2023-03-04T07:10:17;45.20;;;22.83;;
37203;SDS011;23098;48.054;10.636;2023-03-04T07:12:42;49.92;;;23.95;;
37203;SDS011;23098;48.054;10.636;2023-03-04T07:15:08;49.10;;;21.75;;
37203;SDS011;23098;48.054;10.636;2023-03-04T07:17:34;50.92;;;23.80;;
37203;SDS011;23098;48.054;10.636;2023-03-04T07:20:00;52.88;;;24.17;;
37203;SDS011;23098;48.054;10.636;2023-03-04T07:22:26;51.33;;;24.83;;
37203;SDS011;23098;48.054;10.636;2023-03-04T07:24:51;82.65;;;35.38;;
37203;SDS011;23098;48.054;10.636;2023-03-04T07:27:17;84.40;;;39.58;;
37203;SDS011;23098;48.054;10.636;2023-03-04T07:29:42;69.93;;;32.60;;
37203;SDS011;23098;48.054;10.636;2023-03-04T07:32:08;66.38;;;29.67;;
37203;SDS011;23098;48.054;10.636;2023-03-04T07:34:36;55.33;;;26.90;;
37203;SDS011;23098;48.054;10.636;2023-03-04T07:37:01;64.63;;;30.20;;
37203;SDS011;23098;48.054;10.636;2023-03-04T07:39:27;87.72;;;38.67;;
37203;SDS011;23098;48.054;10.636;2023-03-04T07:41:53;60.70;;;28.30;;
37203;SDS011;23098;48.054;10.636;2023-03-04T07:44:18;55.47;;;24.40;;
37203;SDS011;23098;48.054;10.636;2023-03-04T07:46:45;54.75;;;27.45;;
37203;SDS011;23098;48.054;10.636;2023-03-04T07:49:11;57.22;;;24.38;;
37203;SDS011;23098;48.054;10.636;2023-03-04T07:51:37;53.03;;;24.38;;
37203;SDS011;23098;48.054;10.636;2023-03-04T07:54:03;57.65;;;25.75;;
37203;SDS011;23098;48.054;10.636;2023-03-04T07:56:30;51.90;;;23.40;;
37203;SDS011;23098;48.054;10.636;2023-03-04T07:58:57;57.22;;;27.42;;
37203;SDS011;23098;48.054;10.636;2023-03-04T08:01:24;53.45;;;24.05;;
37203;SDS011;23098;48.054;10.636;2023-03-04T08:03:52;58.13;;;27.15;;
37203;SDS011;23098;48.054;10.636;2023-03-04T08:11:37;62.85;;;27.58;;
37203;SDS011;23098;48.054;10.636;2023-03-04T08:16:39;68.70;;;30.17;;
37203;SDS011;23098;48.054;10.636;2023-03-04T08:19:05;63.60;;;27.52;;
37203;SDS011;23098;48.054;10.636;2023-03-04T08:26:37;63.85;;;28.45;;
37203;SDS011;23098;48.054;10.636;2023-03-04T08:29:05;70.15;;;28.52;;
37203;SDS011;23098;48.054;10.636;2023-03-04T08:31:32;66.45;;;27.77;;
37203;SDS011;23098;48.054;10.636;2023-03-04T08:33:58;68.95;;;29.70;;
37203;SDS011;23098;48.054;10.636;2023-03-04T08:36:23;72.72;;;30.70;;
37203;SDS011;23098;48.054;10.636;2023-03-04T08:38:49;65.70;;;28.23;;
37203;SDS011;23098;48.054;10.636;2023-03-04T08:41:18;69.13;;;31.90;;
37203;SDS011;23098;48.054;10.636;2023-03-04T08:43:44;76.75;;;30.65;;
37203;SDS011;23098;48.054;10.636;2023-03-04T08:46:10;69.22;;;30.48;;
37203;SDS011;23098;48.054;10.636;2023-03-04T08:48:36;67.22;;;28.55;;
37203;SDS011;23098;48.054;10.636;2023-03-04T08:51:06;73.25;;;30.80;;
37203;SDS011;23098;48.054;10.636;2023-03-04T08:53:33;76.60;;;34.15;;
37203;SDS011;23098;48.054;10.636;2023-03-04T08:55:59;79.63;;;34.25;;
37203;SDS011;23098;48.054;10.636;2023-03-04T08:58:24;76.95;;;32.20;;
37203;SDS011;23098;48.054;10.636;2023-03-04T09:00:50;78.72;;;31.67;;
37203;SDS011;23098;48.054;10.636;2023-03-04T09:03:16;73.30;;;32.65;;
37203;SDS011;23098;48.054;10.636;2023-03-04T09:05:44;74.22;;;32.25;;
37203;SDS011;23098;48.054;10.636;2023-03-04T09:08:10;73.93;;;31.95;;
37203;SDS011;23098;48.054;10.636;2023-03-04T09:10:36;74.90;;;33.80;;
37203;SDS011;23098;48.054;10.636;2023-03-04T09:13:02;76.32;;;34.58;;
37203;SDS011;23098;48.054;10.636;2023-03-04T09:15:28;78.85;;;34.63;;
37203;SDS011;23098;48.054;10.636;2023-03-04T09:17:53;76.32;;;31.25;;
37203;SDS011;23098;48.054;10.636;2023-03-04T09:20:19;74.32;;;31.92;;
37203;SDS011;23098;48.054;10.636;2023-03-04T09:22:47;78.78;;;33.80;;
37203;SDS011;23098;48.054;10.636;2023-03-04T09:25:13;79.45;;;32.95;;
37203;SDS011;23098;48.054;10.636;2023-03-04T09:27:40;83.80;;;36.38;;
37203;SDS011;23098;48.054;10.636;2023-03-04T09:30:08;81.05;;;34.75;;
37203;SDS011;23098;48.054;10.636;2023-03-04T09:32:34;74.60;;;31.75;;
37203;SDS011;23098;48.054;10.636;2023-03-04T09:35:00;78.20;;;33.88;;
37203;SDS011;23098;48.054;10.636;2023-03-04T09:37:26;74.72;;;31.48;;
37203;SDS011;23098;48.054;10.636;2023-03-04T09:39:52;75.55;;;31.45;;
37203;SDS011;23098;48.054;10.636;2023-03-04T09:42:24;80.07;;;32.08;;
37203;SDS011;23098;48.054;10.636;2023-03-04T09:44:54;76.97;;;31.75;;
37203;SDS011;23098;48.054;10.636;2023-03-04T09:47:21;81.22;;;33.92;;
37203;SDS011;23098;48.054;10.636;2023-03-04T09:49:55;79.68;;;33.08;;
37203;SDS011;23098;48.054;10.636;2023-03-04T09:52:43;74.95;;;31.92;;
37203;SDS011;23098;48.054;10.636;2023-03-04T09:55:24;73.40;;;30.98;;
37203;SDS011;23098;48.054;10.636;2023-03-04T10:00:57;70.30;;;31.42;;
37203;SDS011;23098;48.054;10.636;2023-03-04T10:03:43;74.97;;;31.83;;
37203;SDS011;23098;48.054;10.636;2023-03-04T10:06:14;73.10;;;31.88;;
37203;SDS011;23098;48.054;10.636;2023-03-04T10:08:50;67.10;;;29.48;;
37203;SDS011;23098;48.054;10.636;2023-03-04T10:11:24;69.72;;;30.70;;
37203;SDS011;23098;48.054;10.636;2023-03-04T10:13:59;76.85;;;30.38;;
37203;SDS011;23098;48.054;10.636;2023-03-04T10:19:32;70.28;;;30.70;;
37203;SDS011;23098;48.054;10.636;2023-03-04T10:22:10;78.82;;;31.73;;
37203;SDS011;23098;48.054;10.636;2023-03-04T10:25:01;76.20;;;30.77;;
37203;SDS011;23098;48.054;10.636;2023-03-04T10:27:42;69.82;;;29.52;;
37203;SDS011;23098;48.054;10.636;2023-03-04T10:30:22;76.18;;;30.65;;
37203;SDS011;23098;48.054;10.636;2023-03-04T10:33:10;72.55;;;31.38;;
37203;SDS011;23098;48.054;10.636;2023-03-04T10:38:31;62.08;;;26.70;;
37203;SDS011;23098;48.054;10.636;2023-03-04T10:40:59;63.72;;;28.30;;
37203;SDS011;23098;48.054;10.636;2023-03-04T10:43:26;67.30;;;29.58;;
37203;SDS011;23098;48.054;10.636;2023-03-04T10:45:53;63.90;;;29.35;;
37203;SDS011;23098;48.054;10.636;2023-03-04T10:48:22;63.55;;;28.63;;
37203;SDS011;23098;48.054;10.636;2023-03-04T10:50:52;65.47;;;28.73;;
37203;SDS011;23098;48.054;10.636;2023-03-04T10:53:27;61.50;;;28.98;;
37203;SDS011;23098;48.054;10.636;2023-03-04T10:55:57;58.83;;;26.55;;
37203;SDS011;23098;48.054;10.636;2023-03-04T10:58:23;60.88;;;28.08;;
37203;SDS011;23098;48.054;10.636;2023-03-04T11:00:58;60.05;;;26.05;;
37203;SDS011;23098;48.054;10.636;2023-03-04T11:03:33;54.13;;;26.77;;
37203;SDS011;23098;48.054;10.636;2023-03-04T11:06:08;60.20;;;27.25;;
37203;SDS011;23098;48.054;10.636;2023-03-04T11:08:38;57.90;;;26.92;;
37203;SDS011;23098;48.054;10.636;2023-03-04T11:11:19;58.17;;;27.48;;
37203;SDS011;23098;48.054;10.636;2023-03-04T11:13:59;50.78;;;23.95;;
37203;SDS011;23098;48.054;10.636;2023-03-04T11:16:30;61.47;;;28.15;;
37203;SDS011;23098;48.054;10.636;2023-03-04T11:19:19;52.25;;;27.98;;
37203;SDS011;23098;48.054;10.636;2023-03-04T11:21:45;55.75;;;28.90;;
37203;SDS011;23098;48.054;10.636;2023-03-04T11:24:18;54.08;;;27.58;;
37203;SDS011;23098;48.054;10.636;2023-03-04T11:27:14;52.08;;;27.42;;
37203;SDS011;23098;48.054;10.636;2023-03-04T11:29:48;55.35;;;30.15;;
37203;SDS011;23098;48.054;10.636;2023-03-04T11:32:23;53.88;;;28.27;;
37203;SDS011;23098;48.054;10.636;2023-03-04T11:37:46;52.15;;;27.65;;
37203;SDS011;23098;48.054;10.636;2023-03-04T11:40:38;53.50;;;27.23;;
37203;SDS011;23098;48.054;10.636;2023-03-04T11:43:12;53.05;;;27.85;;
37203;SDS011;23098;48.054;10.636;2023-03-04T11:46:13;55.10;;;26.67;;
37203;SDS011;23098;48.054;10.636;2023-03-04T11:49:10;53.67;;;26.98;;
37203;SDS011;23098;48.054;10.636;2023-03-04T11:57:26;50.67;;;26.35;;
37203;SDS011;23098;48.054;10.636;2023-03-04T12:08:32;46.72;;;26.02;;
37203;SDS011;23098;48.054;10.636;2023-03-04T12:11:44;48.38;;;26.75;;
37203;SDS011;23098;48.054;10.636;2023-03-04T12:14:46;49.58;;;25.80;;
37203;SDS011;23098;48.054;10.636;2023-03-04T12:25:41;40.38;;;22.02;;
37203;SDS011;23098;48.054;10.636;2023-03-04T12:31:15;42.17;;;23.73;;
37203;SDS011;23098;48.054;10.636;2023-03-04T12:39:33;41.95;;;23.15;;
37203;SDS011;23098;48.054;10.636;2023-03-04T12:45:00;47.27;;;24.97;;
37203;SDS011;23098;48.054;10.636;2023-03-04T12:47:46;57.13;;;28.42;;
37203;SDS011;23098;48.054;10.636;2023-03-04T12:55:38;41.17;;;21.83;;
37203;SDS011;23098;48.054;10.636;2023-03-04T12:58:12;43.70;;;23.25;;
37203;SDS011;23098;48.054;10.636;2023-03-04T13:03:40;45.70;;;23.25;;
37203;SDS011;23098;48.054;10.636;2023-03-04T13:09:25;47.65;;;23.48;;
37203;SDS011;23098;48.054;10.636;2023-03-04T13:12:19;40.88;;;22.90;;
37203;SDS011;23098;48.054;10.636;2023-03-04T13:17:38;42.33;;;22.80;;
37203;SDS011;23098;48.054;10.636;2023-03-04T13:22:54;44.13;;;23.42;;
37203;SDS011;23098;48.054;10.636;2023-03-04T13:25:32;48.53;;;24.15;;
37203;SDS011;23098;48.054;10.636;2023-03-04T13:43:49;46.03;;;24.15;;
37203;SDS011;23098;48.054;10.636;2023-03-04T13:51:26;44.38;;;23.38;;
37203;SDS011;23098;48.054;10.636;2023-03-04T13:56:44;42.28;;;23.20;;
37203;SDS011;23098;48.054;10.636;2023-03-04T14:02:09;43.17;;;22.70;;
37203;SDS011;23098;48.054;10.636;2023-03-04T14:04:38;41.97;;;22.52;;
37203;SDS011;23098;48.054;10.636;2023-03-04T14:07:18;41.42;;;21.52;;
37203;SDS011;23098;48.054;10.636;2023-03-04T14:09:56;41.08;;;22.05;;
37203;SDS011;23098;48.054;10.636;2023-03-04T14:12:32;36.47;;;20.80;;
37203;SDS011;23098;48.054;10.636;2023-03-04T14:15:00;39.28;;;20.80;;
37203;SDS011;23098;48.054;10.636;2023-03-04T14:17:30;38.15;;;20.88;;
37203;SDS011;23098;48.054;10.636;2023-03-04T14:22:28;40.90;;;20.95;;
37203;SDS011;23098;48.054;10.636;2023-03-04T14:24:56;38.40;;;20.88;;
37203;SDS011;23098;48.054;10.636;2023-03-04T14:27:24;39.05;;;20.88;;
37203;SDS011;23098;48.054;10.636;2023-03-04T14:29:56;38.33;;;21.35;;
37203;SDS011;23098;48.054;10.636;2023-03-04T14:32:24;41.00;;;20.90;;
37203;SDS011;23098;48.054;10.636;2023-03-04T14:34:53;41.40;;;20.65;;
37203;SDS011;23098;48.054;10.636;2023-03-04T14:37:23;35.45;;;19.00;;
37203;SDS011;23098;48.054;10.636;2023-03-04T14:39:52;32.88;;;18.73;;
37203;SDS011;23098;48.054;10.636;2023-03-04T14:42:21;36.77;;;19.93;;
37203;SDS011;23098;48.054;10.636;2023-03-04T14:44:58;36.38;;;18.80;;
37203;SDS011;23098;48.054;10.636;2023-03-04T14:47:35;38.00;;;19.25;;
37203;SDS011;23098;48.054;10.636;2023-03-04T14:50:13;36.35;;;19.63;;
37203;SDS011;23098;48.054;10.636;2023-03-04T14:52:42;37.95;;;19.38;;
37203;SDS011;23098;48.054;10.636;2023-03-04T14:57:38;36.97;;;19.30;;
37203;SDS011;23098;48.054;10.636;2023-03-04T15:02:53;35.70;;;18.23;;
37203;SDS011;23098;48.054;10.636;2023-03-04T15:05:28;36.85;;;19.52;;
37203;SDS011;23098;48.054;10.636;2023-03-04T15:10:38;35.20;;;17.75;;
37203;SDS011;23098;48.054;10.636;2023-03-04T15:13:05;38.33;;;18.73;;
37203;SDS011;23098;48.054;10.636;2023-03-04T15:18:22;32.70;;;17.58;;
37203;SDS011;23098;48.054;10.636;2023-03-04T15:21:00;33.55;;;16.92;;
37203;SDS011;23098;48.054;10.636;2023-03-04T15:23:46;31.45;;;15.82;;
37203;SDS011;23098;48.054;10.636;2023-03-04T15:26:12;33.20;;;17.35;;
37203;SDS011;23098;48.054;10.636;2023-03-04T15:28:38;35.55;;;17.40;;
37203;SDS011;23098;48.054;10.636;2023-03-04T15:31:18;34.30;;;16.42;;
37203;SDS011;23098;48.054;10.636;2023-03-04T15:33:45;35.63;;;17.13;;
37203;SDS011;23098;48.054;10.636;2023-03-04T15:36:13;34.88;;;16.55;;
37203;SDS011;23098;48.054;10.636;2023-03-04T15:38:40;35.38;;;17.33;;
37203;SDS011;23098;48.054;10.636;2023-03-04T15:41:13;34.88;;;16.73;;
37203;SDS011;23098;48.054;10.636;2023-03-04T15:43:50;35.08;;;15.73;;
37203;SDS011;23098;48.054;10.636;2023-03-04T15:46:17;35.22;;;16.88;;
37203;SDS011;23098;48.054;10.636;2023-03-04T15:48:44;38.63;;;16.35;;
37203;SDS011;23098;48.054;10.636;2023-03-04T15:51:16;32.78;;;15.82;;
37203;SDS011;23098;48.054;10.636;2023-03-04T15:53:49;35.35;;;16.27;;
37203;SDS011;23098;48.054;10.636;2023-03-04T15:56:22;34.85;;;15.10;;
37203;SDS011;23098;48.054;10.636;2023-03-04T15:58:53;33.90;;;15.07;;
37203;SDS011;23098;48.054;10.636;2023-03-04T16:01:38;34.35;;;15.45;;
37203;SDS011;23098;48.054;10.636;2023-03-04T16:04:04;37.80;;;16.00;;
37203;SDS011;23098;48.054;10.636;2023-03-04T16:06:30;37.35;;;15.43;;
37203;SDS011;23098;48.054;10.636;2023-03-04T16:08:57;34.08;;;14.95;;
37203;SDS011;23098;48.054;10.636;2023-03-04T16:11:24;31.63;;;13.40;;
37203;SDS011;23098;48.054;10.636;2023-03-04T16:13:52;26.35;;;13.10;;
37203;SDS011;23098;48.054;10.636;2023-03-04T16:16:18;28.70;;;13.50;;